createdAt,value
2022-12-03T00:00:41.691Z,7.37
2022-12-03T00:03:08.745Z,6.23
2022-12-03T00:05:35.761Z,5.70
2022-12-03T00:08:04.276Z,5.40
2022-12-03T00:10:31.222Z,5.47
2022-12-03T00:12:58.105Z,5.40
2022-12-03T00:15:24.897Z,5.10
2022-12-03T00:17:51.711Z,4.77
2022-12-03T00:20:21.593Z,5.30
2022-12-03T00:22:48.484Z,4.63
2022-12-03T00:25:15.679Z,4.63
2022-12-03T00:27:42.886Z,4.90
2022-12-03T00:30:11.549Z,4.87
2022-12-03T00:32:38.504Z,4.87
2022-12-03T00:35:05.849Z,4.13
2022-12-03T00:37:35.257Z,4.57
2022-12-03T00:40:04.554Z,3.90
2022-12-03T00:42:31.726Z,3.73
2022-12-03T00:44:58.667Z,3.77
2022-12-03T00:47:25.623Z,3.97
2022-12-03T00:49:52.915Z,3.90
2022-12-03T00:52:19.940Z,4.77
2022-12-03T00:54:46.750Z,4.17
2022-12-03T00:57:13.694Z,4.07
2022-12-03T00:59:41.080Z,4.47
2022-12-03T01:02:07.907Z,4.10
2022-12-03T01:04:35.150Z,4.27
2022-12-03T01:07:02.287Z,3.50
2022-12-03T01:09:29.139Z,3.50
2022-12-03T01:11:56.397Z,4.00
2022-12-03T01:14:23.548Z,3.80
2022-12-03T01:16:50.334Z,3.80
2022-12-03T01:19:18.036Z,3.93
2022-12-03T01:21:47.768Z,4.00
2022-12-03T01:24:14.928Z,4.07
2022-12-03T01:26:42.055Z,4.50
2022-12-03T01:29:09.003Z,4.00
2022-12-03T01:31:54.397Z,3.83
2022-12-03T01:34:21.234Z,3.93
2022-12-03T01:36:47.996Z,3.97
2022-12-03T01:39:14.873Z,4.10
2022-12-03T01:41:41.866Z,3.90
2022-12-03T01:44:16.851Z,4.23
2022-12-03T01:46:44.890Z,4.63
2022-12-03T01:49:19.565Z,4.17
2022-12-03T01:51:49.020Z,4.30
2022-12-03T01:54:24.942Z,4.43
2022-12-03T01:56:52.969Z,4.00
2022-12-03T01:59:22.001Z,4.47
2022-12-03T02:01:49.495Z,4.20
2022-12-03T02:04:19.806Z,4.53
2022-12-03T02:06:46.839Z,4.60
2022-12-03T02:09:14.119Z,5.00
2022-12-03T02:11:44.775Z,4.23
2022-12-03T02:14:16.436Z,4.20
2022-12-03T02:16:46.071Z,4.70
2022-12-03T02:19:27.618Z,4.47
2022-12-03T02:22:19.501Z,4.67
2022-12-03T02:24:55.863Z,4.20
2022-12-03T02:27:23.267Z,4.47
2022-12-03T02:29:50.145Z,4.77
2022-12-03T02:32:17.116Z,4.50
2022-12-03T02:34:45.471Z,4.20
2022-12-03T02:37:34.998Z,4.37
2022-12-03T02:40:10.231Z,4.20
2022-12-03T02:42:37.446Z,4.43
2022-12-03T02:45:07.731Z,4.53
2022-12-03T02:47:41.268Z,4.73
2022-12-03T02:50:09.983Z,4.60
2022-12-03T02:52:37.428Z,4.60
2022-12-03T02:55:07.079Z,5.20
2022-12-03T02:57:36.267Z,4.53
2022-12-03T03:00:05.487Z,4.70
2022-12-03T03:02:33.495Z,4.93
2022-12-03T03:05:02.794Z,4.83
2022-12-03T03:07:29.873Z,5.10
2022-12-03T03:09:56.741Z,5.37
2022-12-03T03:12:23.702Z,4.87
2022-12-03T03:14:50.777Z,5.10
2022-12-03T03:17:19.311Z,4.87
2022-12-03T03:19:46.902Z,4.90
2022-12-03T03:22:13.991Z,4.33
2022-12-03T03:24:40.928Z,5.20
2022-12-03T03:27:08.092Z,5.00
2022-12-03T03:29:35.621Z,5.03
2022-12-03T03:32:04.530Z,4.97
2022-12-03T03:34:33.150Z,4.70
2022-12-03T03:37:00.987Z,4.47
2022-12-03T03:39:27.965Z,4.23
2022-12-03T03:41:54.845Z,4.73
2022-12-03T03:44:21.683Z,4.63
2022-12-03T03:46:48.872Z,5.27
2022-12-03T03:49:16.381Z,4.60
2022-12-03T03:51:44.323Z,4.83
2022-12-03T03:54:11.626Z,5.40
2022-12-03T03:56:38.791Z,4.83
2022-12-03T03:59:05.724Z,5.57
2022-12-03T04:01:33.167Z,5.00
2022-12-03T04:04:00.436Z,5.60
2022-12-03T04:06:28.233Z,5.53
2022-12-03T04:08:55.302Z,5.57
2022-12-03T04:11:40.525Z,6.00
2022-12-03T04:14:07.340Z,5.53
2022-12-03T04:16:34.271Z,5.43
2022-12-03T04:19:01.272Z,6.07
2022-12-03T04:21:46.707Z,5.87
2022-12-03T04:24:13.568Z,6.23
2022-12-03T04:26:59.105Z,5.43
2022-12-03T04:29:25.941Z,5.50
2022-12-03T04:32:11.284Z,5.73
2022-12-03T04:34:57.074Z,5.63
2022-12-03T04:37:24.419Z,6.97
2022-12-03T04:39:51.236Z,6.37
2022-12-03T04:42:18.099Z,6.40
2022-12-03T04:44:45.131Z,6.53
2022-12-03T04:47:17.980Z,6.07
2022-12-03T04:49:47.488Z,6.33
2022-12-03T04:52:16.847Z,6.67
2022-12-03T04:54:44.052Z,5.97
2022-12-03T04:57:11.665Z,7.00
2022-12-03T04:59:38.575Z,6.50
2022-12-03T05:02:06.942Z,6.67
2022-12-03T05:04:34.272Z,6.30
2022-12-03T05:07:01.952Z,6.20
2022-12-03T05:09:28.953Z,6.20
2022-12-03T05:12:10.810Z,6.50
2022-12-03T05:14:37.580Z,6.63
2022-12-03T05:17:04.471Z,6.73
2022-12-03T05:19:50.008Z,6.77
2022-12-03T05:22:16.805Z,5.93
2022-12-03T05:24:43.623Z,7.23
2022-12-03T05:27:10.531Z,6.87
2022-12-03T05:29:37.295Z,6.87
2022-12-03T05:32:04.318Z,7.73
2022-12-03T05:34:31.140Z,6.97
2022-12-03T05:36:57.985Z,6.43
2022-12-03T05:39:25.882Z,6.33
2022-12-03T05:42:11.067Z,6.70
2022-12-03T05:44:37.906Z,6.60
2022-12-03T05:47:04.718Z,7.30
2022-12-03T05:49:31.489Z,6.70
2022-12-03T05:51:58.951Z,7.43
2022-12-03T05:54:26.201Z,6.80
2022-12-03T05:56:53.557Z,7.13
2022-12-03T05:59:20.379Z,7.03
2022-12-03T06:01:47.201Z,6.83
2022-12-03T06:04:14.195Z,7.53
2022-12-03T06:06:40.963Z,6.63
2022-12-03T06:09:07.724Z,7.37
2022-12-03T06:11:37.035Z,6.40
2022-12-03T06:14:04.053Z,6.80
2022-12-03T06:16:31.063Z,6.37
2022-12-03T06:18:58.155Z,6.30
2022-12-03T06:21:24.944Z,7.27
2022-12-03T06:23:51.732Z,6.43
2022-12-03T06:26:18.899Z,6.73
2022-12-03T06:28:47.669Z,7.03
2022-12-03T06:31:14.593Z,6.60
2022-12-03T06:33:41.529Z,6.40
2022-12-03T06:36:08.668Z,6.10
2022-12-03T06:38:35.631Z,6.27
2022-12-03T06:41:02.565Z,6.70
2022-12-03T06:43:31.040Z,6.57
2022-12-03T06:45:57.840Z,7.60
2022-12-03T06:48:24.764Z,7.80
2022-12-03T06:50:51.737Z,6.70
2022-12-03T06:53:18.621Z,6.73
2022-12-03T06:55:45.456Z,7.37
2022-12-03T06:58:12.335Z,6.23
2022-12-03T07:00:39.120Z,6.30
2022-12-03T07:03:06.087Z,6.73
2022-12-03T07:05:32.913Z,6.70
2022-12-03T07:07:59.756Z,7.00
2022-12-03T07:10:26.757Z,7.37
2022-12-03T07:12:53.653Z,7.53
2022-12-03T07:15:20.534Z,6.70
2022-12-03T07:17:47.340Z,6.73
2022-12-03T07:20:16.927Z,7.20
2022-12-03T07:22:43.736Z,6.80
2022-12-03T07:25:11.409Z,6.37
2022-12-03T07:27:38.403Z,6.60
2022-12-03T07:30:07.340Z,7.10
2022-12-03T07:32:34.140Z,6.47
2022-12-03T07:35:01.311Z,7.30
2022-12-03T07:37:28.239Z,6.57
2022-12-03T07:39:55.116Z,6.37
2022-12-03T07:42:22.184Z,6.57
2022-12-03T07:44:49.001Z,6.57
2022-12-03T07:47:15.738Z,6.27
2022-12-03T07:49:42.728Z,5.90
2022-12-03T07:52:09.693Z,6.47
2022-12-03T07:54:36.948Z,5.83
2022-12-03T07:57:03.890Z,6.17
2022-12-03T07:59:30.800Z,6.40
2022-12-03T08:01:57.635Z,6.47
2022-12-03T08:04:24.630Z,6.13
2022-12-03T08:06:51.480Z,6.40
2022-12-03T08:09:18.289Z,6.93
2022-12-03T08:11:48.941Z,6.57
2022-12-03T08:14:18.204Z,6.13
2022-12-03T08:16:47.263Z,7.53
2022-12-03T08:19:16.794Z,6.37
2022-12-03T08:21:44.271Z,6.90
2022-12-03T08:24:15.461Z,6.50
2022-12-03T08:26:44.463Z,6.63
2022-12-03T08:29:14.455Z,7.10
2022-12-03T08:31:41.840Z,6.93
2022-12-03T08:34:27.173Z,6.43
2022-12-03T08:37:01.387Z,7.17
2022-12-03T08:39:40.017Z,6.77
2022-12-03T08:42:40.783Z,6.10
2022-12-03T08:45:28.134Z,5.93
2022-12-03T08:48:02.638Z,6.93
2022-12-03T08:50:32.284Z,6.83
2022-12-03T08:53:14.273Z,6.50
2022-12-03T08:55:52.972Z,6.23
2022-12-03T08:58:40.616Z,6.07
2022-12-03T09:01:10.713Z,6.77
2022-12-03T09:03:54.999Z,7.63
2022-12-03T09:06:22.940Z,6.60
2022-12-03T09:08:49.725Z,6.90
2022-12-03T09:11:16.540Z,6.73
2022-12-03T09:13:43.362Z,7.30
2022-12-03T09:16:10.353Z,6.13
2022-12-03T09:18:37.299Z,6.53
2022-12-03T09:21:04.285Z,6.87
2022-12-03T09:23:31.197Z,6.97
2022-12-03T09:25:59.136Z,7.00
2022-12-03T09:28:26.050Z,7.63
2022-12-03T09:30:52.920Z,7.67
2022-12-03T09:33:19.793Z,6.53
2022-12-03T09:35:46.718Z,6.77
2022-12-03T09:38:13.545Z,7.43
2022-12-03T09:40:40.995Z,7.70
2022-12-03T09:43:07.984Z,7.27
2022-12-03T09:45:35.158Z,7.60
2022-12-03T09:48:04.063Z,8.00
2022-12-03T09:50:32.116Z,7.37
2022-12-03T09:53:03.384Z,6.87
2022-12-03T09:55:30.990Z,7.53
2022-12-03T09:57:58.915Z,6.53
2022-12-03T10:00:29.423Z,5.73
2022-12-03T10:03:02.945Z,6.80
2022-12-03T10:05:30.523Z,8.17
2022-12-03T10:08:05.569Z,8.03
2022-12-03T10:10:33.739Z,9.03
2022-12-03T10:13:00.959Z,7.00
2022-12-03T10:15:27.991Z,7.83
2022-12-03T10:17:56.669Z,7.37
2022-12-03T10:20:25.678Z,7.70
2022-12-03T10:22:52.575Z,8.07
2022-12-03T10:25:22.611Z,8.13
2022-12-03T10:27:58.384Z,8.30
2022-12-03T10:30:28.672Z,8.10
2022-12-03T10:32:58.684Z,7.83
2022-12-03T10:35:37.652Z,7.30
2022-12-03T10:38:05.898Z,7.27
2022-12-03T10:40:37.883Z,7.87
2022-12-03T10:43:19.634Z,7.90
2022-12-03T10:45:51.764Z,6.60
2022-12-03T10:48:27.680Z,6.80
2022-12-03T10:50:55.893Z,7.77
2022-12-03T10:53:35.732Z,8.67
2022-12-03T10:56:06.020Z,7.67
2022-12-03T10:58:37.924Z,7.43
2022-12-03T11:01:18.105Z,7.50
2022-12-03T11:03:45.356Z,8.50
2022-12-03T11:06:18.237Z,8.00
2022-12-03T11:08:54.693Z,7.93
2022-12-03T11:11:29.057Z,7.53
2022-12-03T11:14:04.084Z,7.90
2022-12-03T11:16:40.106Z,8.17
2022-12-03T11:19:12.999Z,8.43
2022-12-03T11:22:18.628Z,8.10
2022-12-03T11:24:45.557Z,7.73
2022-12-03T11:27:12.340Z,7.67
2022-12-03T11:29:59.653Z,8.33
2022-12-03T11:32:38.585Z,7.67
2022-12-03T11:35:13.601Z,7.43
2022-12-03T11:37:40.569Z,8.00
2022-12-03T11:40:27.853Z,7.90
2022-12-03T11:42:54.742Z,7.63
2022-12-03T11:45:35.408Z,8.20
2022-12-03T11:48:10.589Z,7.63
2022-12-03T11:50:53.764Z,8.57
2022-12-03T11:53:24.260Z,7.43
2022-12-03T11:56:06.728Z,7.80
2022-12-03T11:58:43.520Z,8.33
2022-12-03T12:01:10.774Z,8.10
2022-12-03T12:03:45.970Z,8.07
2022-12-03T12:06:14.491Z,8.07
2022-12-03T12:09:03.838Z,8.00
2022-12-03T12:11:40.569Z,7.53
2022-12-03T12:14:09.828Z,7.43
2022-12-03T12:16:42.704Z,8.50
2022-12-03T12:19:28.656Z,8.20
2022-12-03T12:21:56.675Z,8.03
2022-12-03T12:24:43.512Z,7.77
2022-12-03T12:27:16.131Z,8.70
2022-12-03T12:29:46.411Z,8.30
2022-12-03T12:32:17.190Z,8.33
2022-12-03T12:34:49.073Z,9.13
2022-12-03T12:37:40.936Z,8.33
2022-12-03T12:40:18.003Z,9.23
2022-12-03T12:43:00.167Z,8.13
2022-12-03T12:45:34.438Z,8.60
2022-12-03T12:48:01.422Z,7.87
2022-12-03T12:50:28.199Z,7.93
2022-12-03T12:53:02.199Z,9.33
2022-12-03T12:55:29.129Z,8.47
2022-12-03T12:58:02.328Z,8.67
2022-12-03T13:00:29.188Z,9.40
2022-12-03T13:03:00.392Z,9.43
2022-12-03T13:05:36.849Z,9.00
2022-12-03T13:08:10.561Z,9.47
2022-12-03T13:10:41.317Z,9.00
2022-12-03T13:13:23.772Z,9.20
2022-12-03T13:16:22.224Z,9.63
2022-12-03T13:18:53.856Z,9.97
2022-12-03T13:21:23.239Z,9.27
2022-12-03T13:23:59.116Z,8.93
2022-12-03T13:26:39.799Z,9.13
2022-12-03T13:29:13.546Z,8.40
2022-12-03T13:31:44.192Z,8.83
2022-12-03T13:34:18.990Z,9.53
2022-12-03T13:36:51.950Z,8.23
2022-12-03T13:39:32.570Z,8.23
2022-12-03T13:42:26.999Z,8.73
2022-12-03T13:44:54.405Z,8.23
2022-12-03T13:47:23.929Z,8.33
2022-12-03T13:50:03.730Z,9.57
2022-12-03T13:52:33.520Z,9.53
2022-12-03T13:55:03.512Z,10.00
2022-12-03T13:57:30.403Z,9.13
2022-12-03T13:59:57.405Z,9.00
2022-12-03T14:02:24.602Z,9.47
2022-12-03T14:04:56.801Z,9.93
2022-12-03T14:07:27.077Z,9.60
2022-12-03T14:09:54.200Z,9.67
2022-12-03T14:12:26.932Z,8.97
2022-12-03T14:14:57.601Z,9.63
2022-12-03T14:17:24.412Z,9.07
2022-12-03T14:19:51.370Z,8.97
2022-12-03T14:22:19.583Z,9.07
2022-12-03T14:24:46.573Z,8.57
2022-12-03T14:27:13.386Z,9.00
2022-12-03T14:29:40.250Z,8.83
2022-12-03T14:32:07.168Z,8.87
2022-12-03T14:34:34.032Z,9.80
2022-12-03T14:37:00.922Z,9.80
2022-12-03T14:39:27.760Z,8.93
2022-12-03T14:42:14.100Z,9.70
2022-12-03T14:44:51.143Z,9.50
2022-12-03T14:47:22.672Z,9.00
2022-12-03T14:49:50.888Z,10.00
2022-12-03T14:52:18.546Z,10.30
2022-12-03T14:54:45.617Z,10.17
2022-12-03T14:57:14.174Z,10.20
2022-12-03T14:59:43.277Z,10.70
2022-12-03T15:02:11.471Z,10.17
2022-12-03T15:04:39.799Z,9.37
2022-12-03T15:07:07.687Z,10.03
2022-12-03T15:09:34.994Z,9.27
2022-12-03T15:12:03.055Z,9.80
2022-12-03T15:14:29.943Z,9.43
2022-12-03T15:16:56.882Z,8.97
2022-12-03T15:19:23.853Z,9.43
2022-12-03T15:21:50.917Z,10.03
2022-12-03T15:24:17.870Z,9.70
2022-12-03T15:26:44.732Z,8.87
2022-12-03T15:29:12.226Z,9.87
2022-12-03T15:31:39.075Z,10.07
2022-12-03T15:34:06.043Z,10.97
2022-12-03T15:36:32.852Z,9.70
2022-12-03T15:39:00.032Z,10.70
2022-12-03T15:41:29.872Z,9.93
2022-12-03T15:43:59.262Z,9.73
2022-12-03T15:46:28.112Z,9.80
2022-12-03T15:48:55.949Z,10.03
2022-12-03T15:51:23.610Z,9.60
2022-12-03T15:53:51.300Z,11.00
2022-12-03T15:56:18.353Z,9.70
2022-12-03T15:58:45.328Z,10.33
2022-12-03T16:01:13.628Z,10.67
2022-12-03T16:03:41.364Z,9.67
2022-12-03T16:06:08.177Z,9.73
2022-12-03T16:08:35.394Z,10.10
2022-12-03T16:11:03.964Z,10.00
2022-12-03T16:13:31.226Z,10.77
2022-12-03T16:15:58.212Z,9.80
2022-12-03T16:18:25.394Z,10.00
2022-12-03T16:20:52.313Z,10.53
2022-12-03T16:23:19.332Z,10.20
2022-12-03T16:25:46.296Z,10.53
2022-12-03T16:28:13.108Z,10.53
2022-12-03T16:30:40.064Z,10.10
2022-12-03T16:33:07.101Z,10.27
2022-12-03T16:35:34.042Z,9.53
2022-12-03T16:38:00.881Z,9.23
2022-12-03T16:40:27.763Z,10.13
2022-12-03T16:42:56.529Z,10.83
2022-12-03T16:45:33.746Z,10.13
2022-12-03T16:48:02.027Z,9.87
2022-12-03T16:50:30.246Z,9.33
2022-12-03T16:52:58.219Z,11.37
2022-12-03T16:55:25.441Z,11.20
2022-12-03T16:57:52.466Z,10.07
2022-12-03T17:00:21.895Z,9.77
2022-12-03T17:02:49.591Z,9.80
2022-12-03T17:05:16.532Z,10.47
2022-12-03T17:07:43.639Z,11.33
2022-12-03T17:10:11.447Z,10.97
2022-12-03T17:13:07.838Z,11.23
2022-12-03T17:15:25.668Z,10.93
2022-12-03T17:17:53.293Z,10.13
2022-12-03T17:20:20.158Z,10.93
2022-12-03T17:22:47.300Z,10.83
2022-12-03T17:25:14.170Z,11.57
2022-12-03T17:27:44.985Z,10.63
2022-12-03T17:30:13.074Z,10.07
2022-12-03T17:32:40.314Z,10.63
2022-12-03T17:35:07.844Z,10.17
2022-12-03T17:37:34.791Z,10.00
2022-12-03T17:40:02.119Z,9.77
2022-12-03T17:42:28.895Z,10.00
2022-12-03T17:44:56.251Z,9.03
2022-12-03T17:47:24.502Z,10.23
2022-12-03T17:49:51.578Z,9.10
2022-12-03T17:52:18.725Z,9.13
2022-12-03T17:55:09.097Z,10.60
2022-12-03T17:57:32.575Z,10.20
2022-12-03T17:59:59.540Z,9.67
2022-12-03T18:02:26.504Z,8.77
2022-12-03T18:04:53.483Z,9.33
2022-12-03T18:07:20.326Z,9.93
2022-12-03T18:09:47.138Z,9.63
2022-12-03T18:12:14.388Z,9.73
2022-12-03T18:14:41.171Z,11.00
2022-12-03T18:17:08.029Z,10.67
2022-12-03T18:19:34.946Z,10.97
2022-12-03T18:22:02.063Z,12.00
2022-12-03T18:24:28.896Z,11.23
2022-12-03T18:26:55.958Z,11.83
2022-12-03T18:29:24.389Z,10.43
2022-12-03T18:31:51.415Z,9.63
2022-12-03T18:34:18.289Z,9.93
2022-12-03T18:36:45.879Z,9.67
2022-12-03T18:39:23.065Z,10.50
2022-12-03T18:41:49.983Z,10.13
2022-12-03T18:44:16.793Z,10.33
2022-12-03T18:46:59.228Z,9.57
2022-12-03T18:49:26.319Z,10.30
2022-12-03T18:51:59.286Z,9.87
2022-12-03T18:54:26.684Z,10.70
2022-12-03T18:56:53.625Z,11.37
2022-12-03T18:59:20.786Z,10.30
2022-12-03T19:01:47.702Z,9.50
2022-12-03T19:04:14.524Z,10.70
2022-12-03T19:06:41.519Z,9.70
2022-12-03T19:09:09.073Z,9.60
2022-12-03T19:11:36.007Z,10.50
2022-12-03T19:14:03.280Z,9.67
2022-12-03T19:16:30.557Z,9.50
2022-12-03T19:18:57.935Z,9.33
2022-12-03T19:21:27.345Z,9.10
2022-12-03T19:24:23.346Z,7.90
2022-12-03T19:26:45.014Z,8.53
2022-12-03T19:29:12.107Z,9.40
2022-12-03T19:31:39.851Z,9.67
2022-12-03T19:34:07.144Z,9.43
2022-12-03T19:36:34.071Z,9.43
2022-12-03T19:39:01.555Z,9.57
2022-12-03T19:41:30.628Z,9.83
2022-12-03T19:43:58.373Z,9.50
2022-12-03T19:46:28.750Z,9.67
2022-12-03T19:48:55.921Z,10.30
2022-12-03T19:51:38.037Z,9.70
2022-12-03T19:54:06.964Z,9.63
2022-12-03T19:56:34.645Z,8.77
2022-12-03T19:59:02.080Z,9.67
2022-12-03T20:01:31.679Z,10.73
2022-12-03T20:04:00.463Z,11.03
2022-12-03T20:06:29.833Z,10.57
2022-12-03T20:08:58.823Z,10.00
2022-12-03T20:11:28.210Z,10.83
2022-12-03T20:13:57.439Z,9.10
2022-12-03T20:16:26.067Z,9.07
2022-12-03T20:18:58.394Z,8.47
2022-12-03T20:21:25.570Z,8.67
2022-12-03T20:23:52.605Z,9.37
2022-12-03T20:26:21.326Z,8.70
2022-12-03T20:28:48.817Z,9.13
2022-12-03T20:31:19.622Z,8.87
2022-12-03T20:33:49.106Z,8.97
2022-12-03T20:36:18.237Z,9.23
2022-12-03T20:38:45.368Z,9.03
2022-12-03T20:41:18.765Z,8.70
2022-12-03T20:43:46.118Z,8.73
2022-12-03T20:46:21.836Z,9.07
2022-12-03T20:48:49.075Z,9.10
2022-12-03T20:51:18.728Z,8.90
2022-12-03T20:53:46.445Z,9.10
2022-12-03T20:56:20.334Z,9.67
2022-12-03T20:58:50.917Z,8.87
2022-12-03T21:01:26.566Z,8.23
2022-12-03T21:03:55.300Z,9.23
2022-12-03T21:06:23.301Z,9.93
2022-12-03T21:08:52.172Z,9.60
2022-12-03T21:11:24.059Z,9.77
2022-12-03T21:13:51.857Z,10.60
2022-12-03T21:16:52.197Z,10.03
2022-12-03T21:19:12.873Z,9.27
2022-12-03T21:21:39.706Z,9.63
2022-12-03T21:24:07.089Z,10.33
2022-12-03T21:26:34.053Z,11.00
2022-12-03T21:29:00.933Z,9.10
2022-12-03T21:31:27.881Z,9.70
2022-12-03T21:33:56.628Z,9.30
2022-12-03T21:36:24.671Z,8.97
2022-12-03T21:38:52.057Z,9.63
2022-12-03T21:41:19.129Z,10.17
2022-12-03T21:43:46.050Z,10.13
2022-12-03T21:47:12.621Z,10.43
2022-12-03T21:49:02.517Z,10.10
2022-12-03T21:51:29.656Z,10.53
2022-12-03T21:53:56.485Z,11.17
2022-12-03T21:56:23.529Z,11.10
2022-12-03T21:58:50.546Z,9.77
2022-12-03T22:01:23.159Z,10.03
2022-12-03T22:03:50.868Z,10.07
2022-12-03T22:06:18.577Z,10.40
2022-12-03T22:08:45.853Z,11.03
2022-12-03T22:11:21.591Z,10.70
2022-12-03T22:13:49.269Z,11.23
2022-12-03T22:16:18.940Z,11.10
2022-12-03T22:18:46.051Z,10.40
2022-12-03T22:21:16.980Z,11.33
2022-12-03T22:23:43.950Z,10.73
2022-12-03T22:26:13.880Z,11.03
2022-12-03T22:28:48.375Z,10.83
2022-12-03T22:31:16.932Z,10.03
2022-12-03T22:33:48.039Z,10.80
2022-12-03T22:36:20.620Z,11.77
2022-12-03T22:38:50.675Z,10.50
2022-12-03T22:41:18.243Z,11.37
2022-12-03T22:43:45.967Z,12.57
2022-12-03T22:46:13.344Z,12.83
2022-12-03T22:48:44.962Z,11.50
2022-12-03T22:51:20.525Z,12.60
2022-12-03T22:53:47.856Z,11.67
2022-12-03T22:56:16.028Z,11.73
2022-12-03T22:58:42.963Z,10.93
2022-12-03T23:01:09.706Z,13.27
2022-12-03T23:03:37.053Z,11.50
2022-12-03T23:06:11.619Z,11.10
2022-12-03T23:08:38.504Z,11.83
2022-12-03T23:11:05.501Z,11.23
2022-12-03T23:13:32.605Z,10.80
2022-12-03T23:15:59.766Z,11.83
2022-12-03T23:18:26.585Z,12.80
2022-12-03T23:20:55.288Z,13.30
2022-12-03T23:23:24.323Z,11.90
2022-12-03T23:26:05.357Z,12.40
2022-12-03T23:28:34.429Z,12.03
2022-12-03T23:31:01.840Z,12.27
2022-12-03T23:33:33.970Z,11.63
2022-12-03T23:36:05.839Z,12.00
2022-12-03T23:38:32.963Z,12.37
2022-12-03T23:41:07.921Z,11.60
2022-12-03T23:43:34.991Z,11.90
2022-12-03T23:46:06.929Z,11.37
2022-12-03T23:48:33.989Z,11.90
2022-12-03T23:51:09.238Z,11.63
2022-12-03T23:53:37.562Z,11.87
2022-12-03T23:56:09.796Z,11.17
2022-12-03T23:58:36.992Z,10.70
